createdAt,value
2018-03-16T00:01:05.983Z,81.10
2018-03-16T00:03:33.566Z,80.73
2018-03-16T00:06:01.111Z,80.49
2018-03-16T00:08:28.654Z,80.62
2018-03-16T00:10:56.224Z,80.56
2018-03-16T00:13:23.783Z,80.40
2018-03-16T00:15:51.334Z,80.61
2018-03-16T00:18:19.209Z,81.10
2018-03-16T00:20:46.751Z,81.75
2018-03-16T00:23:14.291Z,81.77
2018-03-16T00:25:42.167Z,81.49
2018-03-16T00:28:09.734Z,81.57
2018-03-16T00:30:37.289Z,81.88
2018-03-16T00:33:04.871Z,81.83
2018-03-16T00:35:32.456Z,81.82
2018-03-16T00:37:59.999Z,81.35
2018-03-16T00:40:27.597Z,80.60
2018-03-16T00:42:55.160Z,80.83
2018-03-16T00:45:22.701Z,80.62
2018-03-16T00:47:50.582Z,80.89
2018-03-16T00:50:18.134Z,80.97
2018-03-16T00:52:45.715Z,81.11
2018-03-16T00:55:13.461Z,81.26
2018-03-16T00:57:41.069Z,81.26
2018-03-16T01:00:08.608Z,81.36
2018-03-16T01:02:36.172Z,81.62
2018-03-16T01:05:03.764Z,81.37
2018-03-16T01:07:31.320Z,81.33
2018-03-16T01:09:58.893Z,81.24
2018-03-16T01:12:26.465Z,81.34
2018-03-16T01:14:54.013Z,81.20
2018-03-16T01:17:21.609Z,81.35
2018-03-16T01:19:49.148Z,81.40
2018-03-16T01:22:16.689Z,82.15
2018-03-16T01:24:44.262Z,81.70
2018-03-16T01:27:11.810Z,81.82
2018-03-16T01:29:39.366Z,82.93
2018-03-16T01:32:06.960Z,83.21
2018-03-16T01:34:34.514Z,82.25
2018-03-16T01:37:02.059Z,82.32
2018-03-16T01:39:29.736Z,82.04
2018-03-16T01:41:57.282Z,82.00
2018-03-16T01:44:24.840Z,82.61
2018-03-16T01:46:52.426Z,82.65
2018-03-16T01:49:19.966Z,83.00
2018-03-16T01:51:47.522Z,82.99
2018-03-16T01:54:15.242Z,82.74
2018-03-16T01:56:42.788Z,82.65
2018-03-16T01:59:10.331Z,82.96
2018-03-16T02:01:37.907Z,82.86
2018-03-16T02:04:05.455Z,82.80
2018-03-16T02:06:33.006Z,82.76
2018-03-16T02:09:00.884Z,82.85
2018-03-16T02:11:28.450Z,82.69
2018-03-16T02:13:56.885Z,82.55
2018-03-16T02:16:24.457Z,82.18
2018-03-16T02:18:52.014Z,82.03
2018-03-16T02:21:19.573Z,82.39
2018-03-16T02:23:47.290Z,82.38
2018-03-16T02:26:14.838Z,82.53
2018-03-16T02:28:42.400Z,82.33
2018-03-16T02:31:09.991Z,82.87
2018-03-16T02:33:37.544Z,83.25
2018-03-16T02:36:05.097Z,83.44
2018-03-16T02:38:32.779Z,83.37
2018-03-16T02:41:00.316Z,83.59
2018-03-16T02:43:27.871Z,83.31
2018-03-16T02:45:55.463Z,83.05
2018-03-16T02:48:23.021Z,82.93
2018-03-16T02:50:50.567Z,83.23
2018-03-16T02:53:19.203Z,83.45
2018-03-16T02:55:46.758Z,84.05
2018-03-16T02:58:14.306Z,83.90
2018-03-16T03:00:42.029Z,83.50
2018-03-16T03:03:09.579Z,83.49
2018-03-16T03:05:37.127Z,83.56
2018-03-16T03:08:04.674Z,82.80
2018-03-16T03:10:32.229Z,82.64
2018-03-16T03:13:00.129Z,82.72
2018-03-16T03:15:27.671Z,82.46
2018-03-16T03:17:55.221Z,82.56
2018-03-16T03:20:22.801Z,82.83
2018-03-16T03:22:50.346Z,82.92
2018-03-16T03:25:17.895Z,82.89
2018-03-16T03:27:45.574Z,83.11
2018-03-16T03:30:13.124Z,82.48
2018-03-16T03:32:40.682Z,82.37
2018-03-16T03:35:08.271Z,82.44
2018-03-16T03:37:35.859Z,81.89
2018-03-16T03:40:03.435Z,82.42
2018-03-16T03:42:31.024Z,82.21
2018-03-16T03:44:58.599Z,82.61
2018-03-16T03:47:26.149Z,82.39
2018-03-16T03:49:53.742Z,82.34
2018-03-16T03:52:21.308Z,82.44
2018-03-16T03:54:48.858Z,82.64
2018-03-16T03:57:16.745Z,82.60
2018-03-16T03:59:44.300Z,82.67
2018-03-16T04:02:11.860Z,82.60
2018-03-16T04:04:39.433Z,82.27
2018-03-16T04:07:06.987Z,82.08
2018-03-16T04:09:34.551Z,81.80
2018-03-16T04:12:02.161Z,81.55
2018-03-16T04:14:29.716Z,81.27
2018-03-16T04:16:57.286Z,80.65
2018-03-16T04:19:24.884Z,80.39
2018-03-16T04:21:52.424Z,80.04
2018-03-16T04:24:19.974Z,80.61
2018-03-16T04:26:47.572Z,80.25
2018-03-16T04:29:15.112Z,80.47
2018-03-16T04:31:42.671Z,80.32
2018-03-16T04:34:10.386Z,79.72
2018-03-16T04:36:37.943Z,79.45
2018-03-16T04:39:05.518Z,78.89
2018-03-16T04:41:33.105Z,78.78
2018-03-16T04:44:00.654Z,78.54
2018-03-16T04:46:28.193Z,79.11
2018-03-16T04:48:55.786Z,78.87
2018-03-16T04:51:23.316Z,79.01
2018-03-16T04:53:50.873Z,77.98
2018-03-16T04:56:18.602Z,78.21
2018-03-16T04:58:46.149Z,79.10
2018-03-16T05:01:13.776Z,78.32
2018-03-16T05:03:41.306Z,77.77
2018-03-16T05:06:08.864Z,77.90
2018-03-16T05:08:36.407Z,77.94
2018-03-16T05:11:03.986Z,77.62
2018-03-16T05:13:31.532Z,78.31
2018-03-16T05:15:59.101Z,77.46
2018-03-16T05:18:27.007Z,77.27
2018-03-16T05:20:54.587Z,77.08
2018-03-16T05:23:22.149Z,77.88
2018-03-16T05:25:49.733Z,77.01
2018-03-16T05:28:17.307Z,76.24
2018-03-16T05:30:44.865Z,75.93
2018-03-16T05:33:12.456Z,76.34
2018-03-16T05:35:40.004Z,75.07
2018-03-16T05:38:07.551Z,75.00
2018-03-16T05:40:35.131Z,76.00
2018-03-16T05:43:02.691Z,76.22
2018-03-16T05:45:30.240Z,75.33
2018-03-16T05:47:57.813Z,76.24
2018-03-16T05:50:25.355Z,75.24
2018-03-16T05:52:52.909Z,74.15
2018-03-16T05:55:20.489Z,75.23
2018-03-16T05:57:48.035Z,75.10
2018-03-16T06:00:15.584Z,73.68
2018-03-16T06:02:43.315Z,72.25
2018-03-16T06:05:10.866Z,71.89
2018-03-16T06:07:38.438Z,71.18
2018-03-16T06:10:06.163Z,71.77
2018-03-16T06:12:33.711Z,72.36
2018-03-16T06:15:01.262Z,72.24
2018-03-16T06:17:28.842Z,70.96
2018-03-16T06:19:56.406Z,71.22
2018-03-16T06:22:23.950Z,70.92
2018-03-16T06:24:51.534Z,70.47
2018-03-16T06:27:19.088Z,69.64
2018-03-16T06:29:46.650Z,69.57
2018-03-16T06:32:14.358Z,70.34
2018-03-16T06:34:41.919Z,69.82
2018-03-16T06:37:09.471Z,68.15
2018-03-16T06:39:37.194Z,68.03
2018-03-16T06:42:04.759Z,67.89
2018-03-16T06:44:32.455Z,66.71
2018-03-16T06:47:00.324Z,67.28
2018-03-16T06:49:27.885Z,68.07
2018-03-16T06:51:55.514Z,67.59
2018-03-16T06:54:23.229Z,68.27
2018-03-16T06:56:50.782Z,69.04
2018-03-16T06:59:18.344Z,67.98
2018-03-16T07:01:46.031Z,68.21
2018-03-16T07:04:13.583Z,66.33
2018-03-16T07:06:41.126Z,65.56
2018-03-16T07:09:08.815Z,66.02
2018-03-16T07:11:36.367Z,65.08
2018-03-16T07:14:03.917Z,65.27
2018-03-16T07:16:31.514Z,64.44
2018-03-16T07:18:59.074Z,63.36
2018-03-16T07:21:26.620Z,63.88
2018-03-16T07:23:54.222Z,64.98
2018-03-16T07:26:21.767Z,65.06
2018-03-16T07:28:49.315Z,64.61
2018-03-16T07:31:17.051Z,63.31
2018-03-16T07:33:44.604Z,64.30
2018-03-16T07:36:12.154Z,65.06
2018-03-16T07:38:39.749Z,63.88
2018-03-16T07:41:07.301Z,63.13
2018-03-16T07:43:34.876Z,63.17
2018-03-16T07:46:03.364Z,62.34
2018-03-16T07:48:30.916Z,61.12
2018-03-16T07:50:58.462Z,60.50
2018-03-16T07:53:26.344Z,59.82
2018-03-16T07:55:53.882Z,60.82
2018-03-16T07:58:21.424Z,60.76
2018-03-16T08:00:49.002Z,60.64
2018-03-16T08:03:16.548Z,61.71
2018-03-16T08:05:44.103Z,62.32
2018-03-16T08:08:11.648Z,61.72
2018-03-16T08:10:39.203Z,62.30
2018-03-16T08:13:06.796Z,62.67
2018-03-16T08:15:34.346Z,62.74
2018-03-16T08:18:01.894Z,64.02
2018-03-16T08:20:29.533Z,64.54
2018-03-16T08:22:57.082Z,65.83
2018-03-16T08:25:24.679Z,66.95
2018-03-16T08:27:52.415Z,66.45
2018-03-16T08:30:19.979Z,67.02
2018-03-16T08:32:47.526Z,67.52
2018-03-16T08:35:15.406Z,67.68
2018-03-16T08:37:42.957Z,68.90
2018-03-16T08:40:10.512Z,69.04
2018-03-16T08:42:38.258Z,69.22
2018-03-16T08:45:05.804Z,69.10
2018-03-16T08:47:33.360Z,69.74
2018-03-16T08:50:01.084Z,68.82
2018-03-16T08:52:28.658Z,69.55
2018-03-16T08:54:56.202Z,69.89
2018-03-16T08:57:23.795Z,69.42
2018-03-16T08:59:51.350Z,69.18
2018-03-16T09:02:18.902Z,69.11
2018-03-16T09:04:46.536Z,68.92
2018-03-16T09:07:14.100Z,69.39
2018-03-16T09:09:41.645Z,68.83
2018-03-16T09:12:09.237Z,68.46
2018-03-16T09:14:36.796Z,68.23
2018-03-16T09:17:04.373Z,69.06
2018-03-16T09:19:32.095Z,69.44
2018-03-16T09:21:59.633Z,68.87
2018-03-16T09:24:27.193Z,67.45
2018-03-16T09:26:54.913Z,66.77
2018-03-16T09:29:22.467Z,65.53
2018-03-16T09:31:50.018Z,66.76
2018-03-16T09:34:17.747Z,64.64
2018-03-16T09:36:45.298Z,65.71
2018-03-16T09:39:12.852Z,66.50
2018-03-16T09:41:40.529Z,65.34
2018-03-16T09:44:09.082Z,65.19
2018-03-16T09:46:36.635Z,64.06
2018-03-16T09:49:04.362Z,64.25
2018-03-16T09:51:31.913Z,64.42
2018-03-16T09:53:59.466Z,63.35
2018-03-16T09:56:27.067Z,63.27
2018-03-16T09:58:54.632Z,62.72
2018-03-16T10:01:22.179Z,62.80
2018-03-16T10:03:49.773Z,61.82
2018-03-16T10:06:17.340Z,61.71
2018-03-16T10:08:44.889Z,61.74
2018-03-16T10:11:12.642Z,62.89
2018-03-16T10:13:40.195Z,63.31
2018-03-16T10:16:07.780Z,62.51
2018-03-16T10:18:35.378Z,62.59
2018-03-16T10:21:02.934Z,62.60
2018-03-16T10:23:30.481Z,63.51
2018-03-16T10:25:58.078Z,63.39
2018-03-16T10:28:25.647Z,63.71
2018-03-16T10:30:53.208Z,64.05
2018-03-16T10:33:20.802Z,65.17
2018-03-16T10:35:48.351Z,64.62
2018-03-16T10:38:15.894Z,64.45
2018-03-16T10:40:43.506Z,65.08
2018-03-16T10:43:11.058Z,64.14
2018-03-16T10:45:38.614Z,65.46
2018-03-16T10:48:06.214Z,65.74
2018-03-16T10:50:33.767Z,66.13
2018-03-16T10:53:01.338Z,67.90
2018-03-16T10:55:29.247Z,68.92
2018-03-16T10:57:56.798Z,69.32
2018-03-16T11:00:29.802Z,69.12
2018-03-16T11:03:03.020Z,68.28
2018-03-16T11:05:30.613Z,68.34
2018-03-16T11:07:58.179Z,67.12
2018-03-16T11:10:25.766Z,66.24
2018-03-16T11:12:53.323Z,66.23
2018-03-16T11:15:21.795Z,66.31
2018-03-16T11:17:49.538Z,65.59
2018-03-16T11:20:17.090Z,65.70
2018-03-16T11:22:44.640Z,64.28
2018-03-16T11:25:12.214Z,65.33
2018-03-16T11:27:39.775Z,64.48
2018-03-16T11:30:07.317Z,65.00
2018-03-16T11:32:34.994Z,65.35
2018-03-16T11:35:02.540Z,64.13
2018-03-16T11:37:30.101Z,63.61
2018-03-16T11:39:57.852Z,63.66
2018-03-16T11:42:25.404Z,63.01
2018-03-16T11:44:52.955Z,63.56
2018-03-16T11:47:20.531Z,63.40
2018-03-16T11:49:48.082Z,63.13
2018-03-16T11:52:15.630Z,64.23
2018-03-16T11:54:43.218Z,64.07
2018-03-16T11:57:10.767Z,63.47
2018-03-16T11:59:38.377Z,62.64
2018-03-16T12:02:05.973Z,63.95
2018-03-16T12:04:33.527Z,65.64
2018-03-16T12:07:01.094Z,65.02
2018-03-16T12:09:28.822Z,65.25
2018-03-16T12:11:56.363Z,63.28
2018-03-16T12:14:23.905Z,62.53
2018-03-16T12:16:51.508Z,60.75
2018-03-16T12:19:19.059Z,60.67
2018-03-16T12:21:46.615Z,61.33
2018-03-16T12:24:14.235Z,62.42
2018-03-16T12:26:41.796Z,61.29
2018-03-16T12:29:09.338Z,59.99
2018-03-16T12:31:36.914Z,59.66
2018-03-16T12:34:04.523Z,59.17
2018-03-16T12:36:32.221Z,58.36
2018-03-16T12:38:59.759Z,55.65
2018-03-16T12:41:27.343Z,55.88
2018-03-16T12:43:54.922Z,55.88
2018-03-16T12:46:22.474Z,55.51
2018-03-16T12:48:50.031Z,56.77
2018-03-16T12:51:17.597Z,56.67
2018-03-16T12:53:45.142Z,57.20
2018-03-16T12:56:12.725Z,57.52
2018-03-16T12:58:40.458Z,57.32
2018-03-16T13:01:08.018Z,57.16
2018-03-16T13:03:35.572Z,57.62
2018-03-16T13:06:03.154Z,58.50
2018-03-16T13:08:30.709Z,59.61
2018-03-16T13:10:58.320Z,59.56
2018-03-16T13:13:25.866Z,59.28
2018-03-16T13:15:53.418Z,59.89
2018-03-16T13:18:21.086Z,60.44
2018-03-16T13:20:48.622Z,60.69
2018-03-16T13:23:16.172Z,61.27
2018-03-16T13:25:43.790Z,60.64
2018-03-16T13:28:11.334Z,60.13
2018-03-16T13:30:38.882Z,60.45
2018-03-16T13:33:06.815Z,60.20
2018-03-16T13:35:34.397Z,61.09
2018-03-16T13:38:01.956Z,60.47
2018-03-16T13:40:29.698Z,61.14
2018-03-16T13:42:57.239Z,59.29
2018-03-16T13:45:24.784Z,58.97
2018-03-16T13:47:53.272Z,57.54
2018-03-16T13:50:20.805Z,57.95
2018-03-16T13:52:48.370Z,58.08
2018-03-16T13:55:16.233Z,58.14
2018-03-16T13:57:43.787Z,58.80
2018-03-16T14:00:11.349Z,59.65
2018-03-16T14:02:38.928Z,59.33
2018-03-16T14:05:06.482Z,59.39
2018-03-16T14:07:34.044Z,59.60
2018-03-16T14:10:01.622Z,59.38
2018-03-16T14:12:29.188Z,59.26
2018-03-16T14:14:56.776Z,60.33
2018-03-16T14:17:24.373Z,59.34
2018-03-16T14:19:51.926Z,59.41
2018-03-16T14:22:19.499Z,59.40
2018-03-16T14:24:47.396Z,59.40
2018-03-16T14:27:14.943Z,59.62
2018-03-16T14:29:42.494Z,60.00
2018-03-16T14:32:10.069Z,59.29
2018-03-16T14:34:37.624Z,60.27
2018-03-16T14:37:05.175Z,60.65
2018-03-16T14:39:32.746Z,60.55
2018-03-16T14:42:00.291Z,60.39
2018-03-16T14:44:27.838Z,60.23
2018-03-16T14:46:55.712Z,60.19
2018-03-16T14:49:23.288Z,61.14
2018-03-16T14:51:50.850Z,61.87
2018-03-16T14:54:18.448Z,62.00
2018-03-16T14:56:45.993Z,61.32
2018-03-16T14:59:13.587Z,61.92
2018-03-16T15:01:41.284Z,61.80
2018-03-16T15:04:08.859Z,61.76
2018-03-16T15:06:36.403Z,63.16
2018-03-16T15:09:04.012Z,62.47
2018-03-16T15:11:31.569Z,62.71
2018-03-16T15:13:59.217Z,63.56
2018-03-16T15:16:26.762Z,62.77
2018-03-16T15:18:54.306Z,62.50
2018-03-16T15:21:22.187Z,63.65
2018-03-16T15:23:49.744Z,63.47
2018-03-16T15:26:17.279Z,64.28
2018-03-16T15:28:45.764Z,64.53
2018-03-16T15:31:13.311Z,64.61
2018-03-16T15:33:40.859Z,66.31
2018-03-16T15:36:08.741Z,65.90
2018-03-16T15:38:36.316Z,65.29
2018-03-16T15:41:03.871Z,65.21
2018-03-16T15:43:31.601Z,65.95
2018-03-16T15:45:59.157Z,65.14
2018-03-16T15:48:26.707Z,65.65
2018-03-16T15:50:54.290Z,65.94
2018-03-16T15:53:21.847Z,66.47
2018-03-16T15:55:49.399Z,67.05
2018-03-16T15:58:17.001Z,66.99
2018-03-16T16:00:44.561Z,67.56
2018-03-16T16:03:12.120Z,67.75
2018-03-16T16:05:39.728Z,67.74
2018-03-16T16:08:07.287Z,68.48
2018-03-16T16:10:34.836Z,69.31
2018-03-16T16:13:02.578Z,70.27
2018-03-16T16:15:30.159Z,69.90
2018-03-16T16:17:57.723Z,70.46
2018-03-16T16:20:25.458Z,71.00
2018-03-16T16:22:53.021Z,70.38
2018-03-16T16:25:20.577Z,71.41
2018-03-16T16:27:48.335Z,71.41
2018-03-16T16:30:15.927Z,72.02
2018-03-16T16:32:43.500Z,71.79
2018-03-16T16:35:11.189Z,73.01
2018-03-16T16:37:38.776Z,73.02
2018-03-16T16:40:06.378Z,73.77
2018-03-16T16:42:33.967Z,74.43
2018-03-16T16:45:01.526Z,74.64
2018-03-16T16:47:29.078Z,74.67
2018-03-16T16:49:56.873Z,74.65
2018-03-16T16:52:24.434Z,75.04
2018-03-16T16:54:52.069Z,74.88
2018-03-16T16:57:19.758Z,74.81
2018-03-16T16:59:47.332Z,75.28
2018-03-16T17:02:14.890Z,74.99
2018-03-16T17:04:42.467Z,75.13
2018-03-16T17:07:10.031Z,75.46
2018-03-16T17:09:37.577Z,74.92
2018-03-16T17:12:05.280Z,75.96
2018-03-16T17:14:32.822Z,76.21
2018-03-16T17:17:00.443Z,76.33
2018-03-16T17:19:27.998Z,76.94
2018-03-16T17:21:55.547Z,76.84
2018-03-16T17:24:23.103Z,77.07
2018-03-16T17:26:50.827Z,77.37
2018-03-16T17:29:18.380Z,77.63
2018-03-16T17:31:45.936Z,77.68
2018-03-16T17:34:13.963Z,77.59
2018-03-16T17:36:41.522Z,77.76
2018-03-16T17:39:09.066Z,77.92
2018-03-16T17:41:36.669Z,78.22
2018-03-16T17:44:04.232Z,78.26
2018-03-16T17:46:31.788Z,78.61
2018-03-16T17:48:59.530Z,78.52
2018-03-16T17:51:27.089Z,78.81
2018-03-16T17:53:54.682Z,78.78
2018-03-16T17:56:22.574Z,78.91
2018-03-16T17:58:50.120Z,79.52
2018-03-16T18:01:18.204Z,79.72
2018-03-16T18:03:46.107Z,80.03
2018-03-16T18:06:13.706Z,79.66
2018-03-16T18:08:41.305Z,79.96
2018-03-16T18:11:09.033Z,79.66
2018-03-16T18:13:36.628Z,79.71
2018-03-16T18:16:04.199Z,80.18
2018-03-16T18:18:32.129Z,80.15
2018-03-16T18:20:59.691Z,80.30
2018-03-16T18:23:27.247Z,80.64
2018-03-16T18:25:54.956Z,80.83
2018-03-16T18:28:22.519Z,81.18
2018-03-16T18:30:50.124Z,81.46
2018-03-16T18:33:17.730Z,81.32
2018-03-16T18:35:45.300Z,81.64
2018-03-16T18:38:12.870Z,81.91
2018-03-16T18:40:40.607Z,82.00
2018-03-16T18:43:08.169Z,81.92
2018-03-16T18:45:35.738Z,82.05
2018-03-16T18:48:03.434Z,82.03
2018-03-16T18:50:30.982Z,82.11
2018-03-16T18:52:58.562Z,82.33
2018-03-16T18:55:26.288Z,82.35
2018-03-16T18:57:53.855Z,82.56
2018-03-16T19:00:21.489Z,82.43
2018-03-16T19:02:49.184Z,82.51
2018-03-16T19:05:16.725Z,82.64
2018-03-16T19:07:44.265Z,82.41
2018-03-16T19:10:12.107Z,82.17
2018-03-16T19:12:39.658Z,81.94
2018-03-16T19:15:07.225Z,81.88
2018-03-16T19:17:34.960Z,81.50
2018-03-16T19:20:02.528Z,81.29
2018-03-16T19:22:30.092Z,81.16
2018-03-16T19:24:57.688Z,80.75
2018-03-16T19:27:25.244Z,80.63
2018-03-16T19:29:52.804Z,80.67
2018-03-16T19:32:20.697Z,79.49
2018-03-16T19:34:48.258Z,79.85
2018-03-16T19:37:15.810Z,79.58
2018-03-16T19:39:43.422Z,80.06
2018-03-16T19:42:10.971Z,80.03
2018-03-16T19:44:38.540Z,80.30
2018-03-16T19:47:06.119Z,80.26
2018-03-16T19:49:33.687Z,80.45
2018-03-16T19:52:01.251Z,80.77
2018-03-16T19:54:28.984Z,80.74
2018-03-16T19:56:56.536Z,80.92
2018-03-16T19:59:24.121Z,80.51
2018-03-16T20:01:51.727Z,80.69
2018-03-16T20:04:19.294Z,80.31
2018-03-16T20:06:46.846Z,79.31
2018-03-16T20:09:14.406Z,79.55
2018-03-16T20:11:41.962Z,79.40
2018-03-16T20:14:09.831Z,78.69
2018-03-16T20:16:37.414Z,78.77
2018-03-16T20:19:04.982Z,78.37
2018-03-16T20:21:32.560Z,78.50
2018-03-16T20:24:00.114Z,78.11
2018-03-16T20:26:27.707Z,78.31
2018-03-16T20:28:55.396Z,78.02
2018-03-16T20:31:23.081Z,78.35
2018-03-16T20:33:50.646Z,78.57
2018-03-16T20:36:18.229Z,78.15
2018-03-16T20:38:45.815Z,76.91
2018-03-16T20:41:13.364Z,76.88
2018-03-16T20:43:41.242Z,76.96
2018-03-16T20:46:08.819Z,77.22
2018-03-16T20:48:36.402Z,77.60
2018-03-16T20:51:04.092Z,77.77
2018-03-16T20:53:31.655Z,77.12
2018-03-16T20:55:59.227Z,77.56
2018-03-16T20:58:26.803Z,77.43
2018-03-16T21:00:54.380Z,77.30
2018-03-16T21:03:21.967Z,77.12
2018-03-16T21:05:49.723Z,77.60
2018-03-16T21:08:17.289Z,77.77
2018-03-16T21:10:44.867Z,76.86
2018-03-16T21:13:12.608Z,75.78
2018-03-16T21:15:40.232Z,75.49
2018-03-16T21:18:07.789Z,75.15
2018-03-16T21:20:35.414Z,75.35
2018-03-16T21:23:02.973Z,75.95
2018-03-16T21:25:30.543Z,76.42
2018-03-16T21:27:58.260Z,76.37
2018-03-16T21:30:25.801Z,76.81
2018-03-16T21:32:53.347Z,76.01
2018-03-16T21:35:21.259Z,76.21
2018-03-16T21:37:48.860Z,76.15
2018-03-16T21:40:16.409Z,75.59
2018-03-16T21:42:44.001Z,75.60
2018-03-16T21:45:11.566Z,75.75
2018-03-16T21:47:39.138Z,75.73
2018-03-16T21:50:06.743Z,75.43
2018-03-16T21:52:34.293Z,75.46
2018-03-16T21:55:01.865Z,75.41
2018-03-16T21:57:29.465Z,75.42
2018-03-16T21:59:57.027Z,75.46
2018-03-16T22:02:24.590Z,75.52
2018-03-16T22:04:52.306Z,75.09
2018-03-16T22:07:19.875Z,74.82
2018-03-16T22:09:47.431Z,75.27
2018-03-16T22:12:15.222Z,74.60
2018-03-16T22:14:42.777Z,74.42
2018-03-16T22:17:10.320Z,74.61
2018-03-16T22:19:37.914Z,74.71
2018-03-16T22:22:05.464Z,75.15
2018-03-16T22:24:33.011Z,75.02
2018-03-16T22:27:00.600Z,74.90
2018-03-16T22:29:28.169Z,75.06
2018-03-16T22:31:55.719Z,74.62
2018-03-16T22:34:23.300Z,74.09
2018-03-16T22:36:50.850Z,73.37
2018-03-16T22:39:18.407Z,72.75
2018-03-16T22:41:45.977Z,71.90
2018-03-16T22:44:13.532Z,70.58
2018-03-16T22:46:41.086Z,69.46
2018-03-16T22:49:08.676Z,68.56
2018-03-16T22:51:36.246Z,68.02
2018-03-16T22:54:03.798Z,68.51
2018-03-16T22:56:31.382Z,68.38
2018-03-16T22:58:58.946Z,67.97
2018-03-16T23:01:26.490Z,67.79
2018-03-16T23:03:54.062Z,68.64
2018-03-16T23:06:21.655Z,67.78
2018-03-16T23:08:49.202Z,68.42
2018-03-16T23:11:16.775Z,68.80
2018-03-16T23:13:44.326Z,69.12
2018-03-16T23:16:11.871Z,69.88
2018-03-16T23:18:39.608Z,70.22
2018-03-16T23:21:07.150Z,68.82
2018-03-16T23:23:34.696Z,69.08
2018-03-16T23:26:02.337Z,68.18
2018-03-16T23:28:29.907Z,68.46
2018-03-16T23:30:57.453Z,67.92
2018-03-16T23:33:25.243Z,68.41
2018-03-16T23:35:52.791Z,68.30
2018-03-16T23:38:20.332Z,68.16
2018-03-16T23:40:48.079Z,68.31
2018-03-16T23:43:15.625Z,67.81
2018-03-16T23:45:43.171Z,67.91
2018-03-16T23:48:10.739Z,67.71
2018-03-16T23:50:38.289Z,67.74
2018-03-16T23:53:05.830Z,67.27
2018-03-16T23:55:33.406Z,67.65
2018-03-16T23:58:00.953Z,67.43
